Time,TemperatureF,DewpointF,PressureIn,WindDirection,WindDirectionDegrees,WindSpeedMPH,WindSpeedGustMPH,Humidity,HourlyPrecipIn,Conditions,Clouds,dailyrainin,SoftwareType,DateUTC
2013-11-12 10:10:00,22.0,14.0,-100.00,West,275,7.0,-999.0,72,0.00,,,-99.99,,2013-11-12 16:10:00,
2013-11-12 10:42:00,22.0,14.0,-100.00,West,275,7.0,-999.0,72,0.00,,,-99.99,,2013-11-12 16:42:00,
2013-11-12 10:53:00,22.0,14.0,-100.00,West,275,7.0,-999.0,72,0.00,,,-99.99,,2013-11-12 16:53:00,
2013-11-12 11:02:00,22.0,14.0,-100.00,West,275,7.0,-999.0,72,0.00,,,-99.99,,2013-11-12 17:02:00,
2013-11-12 13:11:00,28.0,15.0,-100.00,WNW,290,5.0,10.0,56,0.00,,,-99.99,,2013-11-12 19:11:00,
2013-11-12 13:22:00,28.0,15.0,-100.00,WNW,290,5.0,10.0,56,0.00,,,-99.99,,2013-11-12 19:22:00,
2013-11-12 13:32:00,28.0,15.0,-100.00,WNW,290,5.0,10.0,56,0.00,,,-99.99,,2013-11-12 19:32:00,
2013-11-12 13:52:00,30.0,15.0,-100.00,West,260,6.0,11.0,52,0.00,,,-99.99,,2013-11-12 19:52:00,
2013-11-12 14:02:00,30.0,15.0,-100.00,West,260,6.0,11.0,52,0.00,,,-99.99,,2013-11-12 20:02:00,
2013-11-12 14:21:00,30.0,15.0,-100.00,WNW,300,4.0,9.0,51,0.00,,,-99.99,,2013-11-12 20:21:00,
2013-11-12 14:32:00,30.0,15.0,-100.00,WNW,300,4.0,9.0,51,0.00,,,-99.99,,2013-11-12 20:32:00,
2013-11-12 14:42:00,30.0,15.0,-100.00,WNW,300,4.0,9.0,51,0.00,,,-99.99,,2013-11-12 20:42:00,
2013-11-12 15:12:00,31.0,14.0,-100.00,WNW,300,9.0,12.0,49,0.00,,,-99.99,,2013-11-12 21:12:00,
2013-11-12 15:44:00,31.0,14.0,-100.00,WNW,290,9.0,12.0,47,0.00,,,-99.99,,2013-11-12 21:44:00,
2013-11-12 16:14:00,31.0,14.0,-100.00,WNW,285,4.0,10.0,47,0.00,,,-99.99,,2013-11-12 22:14:00,
2013-11-12 16:24:00,31.0,14.0,-100.00,WNW,285,4.0,10.0,47,0.00,,,-99.99,,2013-11-12 22:24:00,
2013-11-12 16:33:00,31.0,14.0,-100.00,WNW,285,4.0,10.0,47,0.00,,,-99.99,,2013-11-12 22:33:00,
2013-11-12 17:12:00,29.0,13.0,-100.00,WNW,290,6.0,7.0,50,0.00,,,-99.99,,2013-11-12 23:12:00,
2013-11-12 17:23:00,29.0,13.0,-100.00,WNW,290,6.0,7.0,50,0.00,,,-99.99,,2013-11-12 23:23:00,
2013-11-12 17:33:00,29.0,13.0,-100.00,WNW,290,6.0,7.0,50,0.00,,,-99.99,,2013-11-12 23:33:00,
2013-11-12 18:11:00,27.0,13.0,-100.00,NW,310,4.0,6.0,56,0.00,,,-99.99,,2013-11-13 00:11:00,
2013-11-12 18:22:00,27.0,13.0,-100.00,NW,310,4.0,6.0,56,0.00,,,-99.99,,2013-11-13 00:22:00,
2013-11-12 18:32:00,27.0,13.0,-100.00,NW,310,4.0,6.0,56,0.00,,,-99.99,,2013-11-13 00:32:00,
2013-11-12 18:42:00,27.0,13.0,-100.00,NW,310,4.0,6.0,56,0.00,,,-99.99,,2013-11-13 00:42:00,
2013-11-12 21:11:00,22.0,17.0,-100.00,SW,235,0.0,0.0,80,0.00,,,-99.99,,2013-11-13 03:11:00,
2013-11-12 21:45:00,22.0,17.0,-100.00,SW,235,0.0,0.0,80,0.00,,,-99.99,,2013-11-13 03:45:00,
2013-11-12 21:54:00,22.0,17.0,-100.00,SW,235,0.0,0.0,80,0.00,,,-99.99,,2013-11-13 03:54:00,
2013-11-12 22:04:00,22.0,17.0,-100.00,SW,235,0.0,0.0,80,0.00,,,-99.99,,2013-11-13 04:04:00,
2013-11-12 22:53:00,20.0,16.0,-100.00,SSW,210,0.0,1.0,86,0.00,,,-99.99,,2013-11-13 04:53:00,
2013-11-12 23:13:00,20.0,16.0,-100.00,SSW,210,0.0,0.0,86,0.00,,,-99.99,,2013-11-13 05:13:00,
2013-11-12 23:41:00,18.0,15.0,-100.00,ESE,110,2.0,4.0,90,0.00,,,-99.99,,2013-11-13 05:41:00,